createdAt,value
2019-02-04T00:00:26.602Z,0.50
2019-02-04T00:01:26.507Z,0.10
2019-02-04T00:02:26.451Z,0.20
2019-02-04T00:03:26.399Z,1.00
2019-02-04T00:04:26.347Z,0.20
2019-02-04T00:05:26.297Z,0.20
2019-02-04T00:06:26.246Z,0.20
2019-02-04T00:07:26.196Z,0.20
2019-02-04T00:08:26.141Z,0.10
2019-02-04T00:09:26.093Z,0.20
2019-02-04T00:10:26.042Z,0.30
2019-02-04T00:11:25.985Z,0.10
2019-02-04T00:12:25.934Z,0.40
2019-02-04T00:13:25.882Z,0.20
2019-02-04T00:14:25.833Z,0.20
2019-02-04T00:15:25.779Z,0.10
2019-02-04T00:16:25.728Z,0.20
2019-02-04T00:17:25.676Z,0.20
2019-02-04T00:18:25.645Z,0.20
2019-02-04T00:19:25.573Z,0.10
2019-02-04T00:20:25.521Z,0.20
2019-02-04T00:21:25.535Z,0.20
2019-02-04T00:22:25.420Z,0.40
2019-02-04T00:23:25.366Z,0.40
2019-02-04T00:24:25.316Z,0.30
2019-02-04T00:25:25.266Z,0.30
2019-02-04T00:26:25.214Z,0.10
2019-02-04T00:27:25.161Z,0.20
2019-02-04T00:28:25.111Z,0.20
2019-02-04T00:29:25.059Z,0.10
2019-02-04T00:30:25.006Z,0.10
2019-02-04T00:31:24.953Z,0.20
2019-02-04T00:32:24.900Z,0.10
2019-02-04T00:33:24.851Z,0.10
2019-02-04T00:34:24.801Z,0.20
2019-02-04T00:35:24.749Z,0.30
2019-02-04T00:36:24.694Z,16.20
2019-02-04T00:37:24.653Z,0.10
2019-02-04T00:38:24.592Z,0.40
2019-02-04T00:39:24.546Z,0.10
2019-02-04T00:40:24.488Z,0.10
2019-02-04T00:41:24.439Z,0.50
2019-02-04T00:42:24.386Z,0.20
2019-02-04T00:43:24.331Z,0.10
2019-02-04T00:44:24.285Z,0.10
2019-02-04T00:45:24.233Z,0.20
2019-02-04T00:46:24.185Z,0.10
2019-02-04T00:47:24.126Z,0.10
2019-02-04T00:48:24.075Z,0.40
2019-02-04T00:49:24.025Z,0.40
2019-02-04T00:50:23.976Z,0.10
2019-02-04T00:51:24.022Z,0.10
2019-02-04T00:52:23.870Z,0.30
2019-02-04T00:53:23.818Z,0.20
2019-02-04T00:54:23.766Z,0.40
2019-02-04T00:55:23.713Z,0.70
2019-02-04T00:56:23.664Z,0.30
2019-02-04T00:57:23.612Z,0.20
2019-02-04T00:58:23.561Z,0.10
2019-02-04T00:59:23.510Z,0.30
2019-02-04T01:00:23.457Z,0.20
2019-02-04T01:01:23.406Z,0.10
2019-02-04T01:02:23.354Z,0.10
2019-02-04T01:03:23.302Z,0.20
2019-02-04T01:04:23.250Z,0.20
2019-02-04T01:05:23.198Z,0.20
2019-02-04T01:06:23.148Z,0.40
2019-02-04T01:07:23.096Z,0.20
2019-02-04T01:08:23.043Z,0.20
2019-02-04T01:09:22.991Z,0.10
2019-02-04T01:10:22.943Z,0.30
2019-02-04T01:11:22.888Z,0.20
2019-02-04T01:12:22.847Z,0.10
2019-02-04T01:13:22.818Z,0.30
2019-02-04T01:14:22.735Z,0.30
2019-02-04T01:15:22.681Z,0.10
2019-02-04T01:16:22.629Z,0.10
2019-02-04T01:17:22.579Z,0.60
2019-02-04T01:18:22.527Z,0.30
2019-02-04T01:19:22.474Z,0.10
2019-02-04T01:20:22.423Z,0.10
2019-02-04T01:21:22.375Z,0.20
2019-02-04T01:22:22.322Z,0.20
2019-02-04T01:23:22.268Z,0.10
2019-02-04T01:24:22.226Z,0.20
2019-02-04T01:25:22.166Z,0.20
2019-02-04T01:26:22.114Z,0.20
2019-02-04T01:27:22.062Z,0.10
2019-02-04T01:28:22.011Z,0.20
2019-02-04T01:29:21.958Z,0.20
2019-02-04T01:30:21.906Z,0.10
2019-02-04T01:31:21.855Z,0.20
2019-02-04T01:32:21.803Z,0.20
2019-02-04T01:33:21.756Z,0.30
2019-02-04T01:34:21.701Z,0.10
2019-02-04T01:35:21.653Z,0.20
2019-02-04T01:36:21.599Z,0.20
2019-02-04T01:37:21.547Z,0.10
2019-02-04T01:38:21.495Z,0.20
2019-02-04T01:39:21.507Z,0.20
2019-02-04T01:40:21.390Z,0.10
2019-02-04T01:41:21.339Z,0.20
2019-02-04T01:42:21.287Z,0.20
2019-02-04T01:43:21.235Z,0.20
2019-02-04T01:44:21.189Z,0.30
2019-02-04T01:45:21.130Z,0.20
2019-02-04T01:46:21.081Z,0.20
2019-02-04T01:47:21.033Z,0.10
2019-02-04T01:48:20.977Z,0.10
2019-02-04T01:49:20.938Z,0.20
2019-02-04T01:50:20.890Z,0.20
2019-02-04T01:51:20.827Z,0.20
2019-02-04T01:52:20.769Z,0.10
2019-02-04T01:53:20.719Z,0.20
2019-02-04T01:54:20.676Z,0.20
2019-02-04T01:55:20.682Z,0.10
2019-02-04T01:56:20.655Z,0.20
2019-02-04T01:57:20.589Z,0.30
2019-02-04T01:58:20.475Z,0.10
2019-02-04T01:59:20.409Z,0.10
2019-02-04T02:00:20.359Z,0.20
2019-02-04T02:01:20.307Z,0.20
2019-02-04T02:02:20.259Z,0.10
2019-02-04T02:03:20.203Z,0.20
2019-02-04T02:04:20.150Z,0.20
2019-02-04T02:05:20.101Z,0.10
2019-02-04T02:06:20.048Z,0.20
2019-02-04T02:07:19.993Z,0.20
2019-02-04T02:08:19.944Z,0.30
2019-02-04T02:09:19.901Z,0.10
2019-02-04T02:10:19.843Z,0.10
2019-02-04T02:11:19.785Z,0.20
2019-02-04T02:12:19.735Z,0.20
2019-02-04T02:13:19.683Z,0.10
2019-02-04T02:14:19.633Z,0.20
2019-02-04T02:15:19.590Z,0.30
2019-02-04T02:16:19.529Z,0.10
2019-02-04T02:17:26.108Z,0.10
2019-02-04T02:18:19.427Z,0.20
2019-02-04T02:19:19.374Z,0.30
2019-02-04T02:20:19.324Z,0.20
2019-02-04T02:21:19.271Z,0.20
2019-02-04T02:22:19.221Z,0.70
2019-02-04T02:23:19.168Z,0.10
2019-02-04T02:24:19.127Z,0.10
2019-02-04T02:25:19.101Z,0.40
2019-02-04T02:26:19.024Z,0.20
2019-02-04T02:27:18.968Z,0.20
2019-02-04T02:28:18.919Z,0.30
2019-02-04T02:29:18.875Z,0.30
2019-02-04T02:30:18.811Z,0.20
2019-02-04T02:31:18.759Z,0.10
2019-02-04T02:32:18.704Z,0.30
2019-02-04T02:33:18.653Z,0.20
2019-02-04T02:34:18.602Z,0.60
2019-02-04T02:35:18.556Z,0.10
2019-02-04T02:36:18.500Z,0.30
2019-02-04T02:37:18.448Z,0.10
2019-02-04T02:38:18.396Z,0.10
2019-02-04T02:39:18.347Z,0.20
2019-02-04T02:40:18.296Z,0.20
2019-02-04T02:41:18.239Z,0.10
2019-02-04T02:42:18.186Z,0.10
2019-02-04T02:43:18.136Z,0.20
2019-02-04T02:44:18.089Z,0.10
2019-02-04T02:45:18.032Z,0.10
2019-02-04T02:46:17.980Z,0.20
2019-02-04T02:47:17.930Z,0.20
2019-02-04T02:48:17.880Z,0.20
2019-02-04T02:49:17.826Z,0.20
2019-02-04T02:50:17.774Z,0.20
2019-02-04T02:51:17.721Z,0.20
2019-02-04T02:52:17.672Z,0.10
2019-02-04T02:53:17.618Z,0.20
2019-02-04T02:54:17.569Z,0.20
2019-02-04T02:55:17.518Z,0.10
2019-02-04T02:56:17.465Z,0.10
2019-02-04T02:57:17.412Z,0.50
2019-02-04T02:58:17.363Z,0.10
2019-02-04T02:59:17.307Z,0.40
2019-02-04T03:00:17.258Z,0.20
2019-02-04T03:01:17.206Z,0.10
2019-02-04T03:02:17.159Z,0.10
2019-02-04T03:03:17.108Z,0.20
2019-02-04T03:04:17.047Z,0.20
2019-02-04T03:05:17.017Z,0.10
2019-02-04T03:06:16.954Z,0.20
2019-02-04T03:07:16.917Z,0.40
2019-02-04T03:08:16.846Z,0.20
2019-02-04T03:09:16.795Z,0.40
2019-02-04T03:10:16.739Z,0.20
2019-02-04T03:11:16.688Z,0.20
2019-02-04T03:12:16.644Z,0.10
2019-02-04T03:13:16.589Z,0.10
2019-02-04T03:14:16.531Z,0.20
2019-02-04T03:15:16.479Z,0.10
2019-02-04T03:16:16.433Z,0.10
2019-02-04T03:17:16.380Z,0.30
2019-02-04T03:18:16.327Z,0.20
2019-02-04T03:19:16.277Z,0.20
2019-02-04T03:20:16.227Z,0.10
2019-02-04T03:21:16.175Z,0.50
2019-02-04T03:22:16.181Z,0.30
2019-02-04T03:23:16.066Z,0.20
2019-02-04T03:24:16.016Z,0.20
2019-02-04T03:25:15.965Z,0.20
2019-02-04T03:26:15.920Z,0.10
2019-02-04T03:27:15.865Z,0.10
2019-02-04T03:28:15.814Z,0.40
2019-02-04T03:29:15.758Z,0.20
2019-02-04T03:30:15.709Z,0.20
2019-02-04T03:31:15.659Z,0.60
2019-02-04T03:32:15.603Z,0.50
2019-02-04T03:33:15.557Z,0.20
2019-02-04T03:34:15.504Z,0.10
2019-02-04T03:35:15.452Z,0.20
2019-02-04T03:36:15.395Z,0.20
2019-02-04T03:37:15.345Z,0.30
2019-02-04T03:38:15.293Z,0.20
2019-02-04T03:39:15.242Z,0.20
2019-02-04T03:40:15.188Z,0.30
2019-02-04T03:41:15.147Z,0.10
2019-02-04T03:42:15.088Z,0.30
2019-02-04T03:43:15.036Z,0.30
2019-02-04T03:44:14.988Z,0.10
2019-02-04T03:45:14.931Z,0.20
2019-02-04T03:46:14.887Z,0.40
2019-02-04T03:47:14.839Z,0.10
2019-02-04T03:48:14.783Z,0.10
2019-02-04T03:49:14.765Z,0.20
2019-02-04T03:50:14.675Z,0.20
2019-02-04T03:51:14.624Z,0.20
2019-02-04T03:52:14.568Z,0.80
2019-02-04T03:53:14.520Z,0.20
2019-02-04T03:54:14.467Z,0.20
2019-02-04T03:55:14.412Z,0.10
2019-02-04T03:56:14.362Z,0.30
2019-02-04T03:57:14.311Z,0.20
2019-02-04T03:58:14.258Z,0.10
2019-02-04T03:59:14.206Z,0.10
2019-02-04T04:00:14.160Z,0.30
2019-02-04T04:01:14.104Z,0.20
2019-02-04T04:02:14.052Z,0.30
2019-02-04T04:03:14.002Z,0.20
2019-02-04T04:04:13.953Z,0.20
2019-02-04T04:05:13.899Z,0.20
2019-02-04T04:06:13.845Z,0.10
2019-02-04T04:07:13.794Z,0.30
2019-02-04T04:08:13.744Z,0.60
2019-02-04T04:09:13.705Z,0.10
2019-02-04T04:10:13.640Z,0.20
2019-02-04T04:11:13.589Z,0.30
2019-02-04T04:12:13.539Z,0.30
2019-02-04T04:13:13.486Z,0.10
2019-02-04T04:14:13.437Z,0.30
2019-02-04T04:15:13.380Z,0.20
2019-02-04T04:16:13.330Z,0.20
2019-02-04T04:17:13.279Z,0.30
2019-02-04T04:18:16.060Z,0.30
2019-02-04T04:19:13.179Z,0.10
2019-02-04T04:20:13.125Z,0.10
2019-02-04T04:21:13.068Z,0.20
2019-02-04T04:22:13.021Z,0.20
2019-02-04T04:23:12.968Z,0.10
2019-02-04T04:24:12.915Z,0.10
2019-02-04T04:25:12.904Z,0.20
2019-02-04T04:26:12.819Z,0.10
2019-02-04T04:27:12.760Z,2.60
2019-02-04T04:28:12.711Z,0.50
2019-02-04T04:29:12.659Z,0.20
2019-02-04T04:30:12.605Z,0.30
2019-02-04T04:31:12.571Z,0.40
2019-02-04T04:32:12.504Z,0.20
2019-02-04T04:33:12.450Z,0.10
2019-02-04T04:34:12.399Z,0.10
2019-02-04T04:35:12.345Z,0.20
2019-02-04T04:36:12.292Z,0.70
2019-02-04T04:37:12.243Z,0.10
2019-02-04T04:38:12.202Z,0.50
2019-02-04T04:39:12.140Z,0.20
2019-02-04T04:40:12.088Z,0.20
2019-02-04T04:41:12.035Z,0.30
2019-02-04T04:42:11.982Z,0.20
2019-02-04T04:43:11.931Z,0.20
2019-02-04T04:44:11.880Z,0.10
2019-02-04T04:45:11.830Z,0.10
2019-02-04T04:46:11.779Z,0.20
2019-02-04T04:47:11.732Z,0.20
2019-02-04T04:48:11.680Z,0.10
2019-02-04T04:49:11.624Z,0.20
2019-02-04T04:50:11.571Z,0.40
2019-02-04T04:51:11.523Z,0.40
2019-02-04T04:52:11.467Z,0.20
2019-02-04T04:53:11.415Z,0.40
2019-02-04T04:54:11.364Z,0.20
2019-02-04T04:55:11.311Z,0.10
2019-02-04T04:56:11.258Z,0.10
2019-02-04T04:57:11.209Z,0.20
2019-02-04T04:58:11.158Z,0.20
2019-02-04T04:59:11.105Z,0.20
2019-02-04T05:00:11.052Z,0.20
2019-02-04T05:01:11.014Z,0.50
2019-02-04T05:02:10.960Z,0.10
2019-02-04T05:03:10.904Z,0.10
2019-02-04T05:04:10.854Z,0.20
2019-02-04T05:05:10.806Z,0.20
2019-02-04T05:06:10.746Z,0.10
2019-02-04T05:07:10.710Z,0.50
2019-02-04T05:08:10.645Z,0.30
2019-02-04T05:09:10.592Z,0.10
2019-02-04T05:10:10.545Z,0.10
2019-02-04T05:11:10.485Z,0.30
2019-02-04T05:12:10.438Z,0.20
2019-02-04T05:13:10.385Z,0.20
2019-02-04T05:14:10.332Z,0.40
2019-02-04T05:15:10.279Z,0.30
2019-02-04T05:16:10.233Z,0.10
2019-02-04T05:17:10.184Z,0.10
2019-02-04T05:18:10.129Z,0.20
2019-02-04T05:19:10.072Z,0.10
2019-02-04T05:20:10.026Z,0.10
2019-02-04T05:21:09.973Z,0.20
2019-02-04T05:22:09.921Z,0.20
2019-02-04T05:23:09.867Z,0.10
2019-02-04T05:24:09.823Z,0.70
2019-02-04T05:25:09.767Z,0.20
2019-02-04T05:26:09.715Z,0.30
2019-02-04T05:27:09.665Z,0.10
2019-02-04T05:28:09.607Z,0.20
2019-02-04T05:29:09.557Z,0.20
2019-02-04T05:30:09.505Z,0.10
2019-02-04T05:31:09.453Z,0.20
2019-02-04T05:32:09.400Z,0.20
2019-02-04T05:33:09.351Z,0.20
2019-02-04T05:34:09.311Z,0.50
2019-02-04T05:35:09.246Z,0.40
2019-02-04T05:36:09.197Z,0.20
2019-02-04T05:37:09.144Z,0.10
2019-02-04T05:38:09.090Z,0.10
2019-02-04T05:39:09.047Z,0.20
2019-02-04T05:40:08.989Z,3.00
2019-02-04T05:41:08.949Z,0.10
2019-02-04T05:42:08.890Z,0.30
2019-02-04T05:43:08.866Z,0.60
2019-02-04T05:44:08.781Z,1.10
2019-02-04T05:45:08.729Z,0.10
2019-02-04T05:46:08.679Z,0.30
2019-02-04T05:47:08.629Z,0.10
2019-02-04T05:48:08.577Z,0.70
2019-02-04T05:49:08.644Z,0.40
2019-02-04T05:50:08.472Z,0.20
2019-02-04T05:51:08.419Z,0.10
2019-02-04T05:52:08.370Z,0.10
2019-02-04T05:53:08.315Z,0.20
2019-02-04T05:54:08.264Z,0.10
2019-02-04T05:55:08.213Z,0.20
2019-02-04T05:56:08.163Z,1.10
2019-02-04T05:57:08.109Z,0.20
2019-02-04T05:58:08.178Z,0.10
2019-02-04T05:59:08.011Z,0.20
2019-02-04T06:00:07.956Z,0.20
2019-02-04T06:01:07.902Z,0.40
2019-02-04T06:02:09.493Z,0.10
2019-02-04T06:03:07.805Z,0.30
2019-02-04T06:04:07.749Z,0.20
2019-02-04T06:05:07.698Z,0.20
2019-02-04T06:06:07.647Z,0.10
2019-02-04T06:07:07.597Z,0.20
2019-02-04T06:08:07.548Z,0.30
2019-02-04T06:09:07.492Z,0.10
2019-02-04T06:10:07.444Z,0.20
2019-02-04T06:11:07.388Z,0.20
2019-02-04T06:12:07.335Z,0.20
2019-02-04T06:13:07.280Z,0.30
2019-02-04T06:14:07.229Z,0.20
2019-02-04T06:15:07.180Z,0.30
2019-02-04T06:16:07.124Z,0.20
2019-02-04T06:17:07.071Z,0.10
2019-02-04T06:18:07.023Z,0.20
2019-02-04T06:19:06.971Z,0.20
2019-02-04T06:20:06.918Z,0.10
2019-02-04T06:21:06.906Z,0.30
2019-02-04T06:22:06.827Z,0.30
2019-02-04T06:23:06.765Z,0.20
2019-02-04T06:24:06.712Z,0.20
2019-02-04T06:25:06.669Z,0.40
2019-02-04T06:26:06.608Z,0.20
2019-02-04T06:27:06.555Z,0.10
2019-02-04T06:28:06.509Z,0.20
2019-02-04T06:29:06.465Z,0.30
2019-02-04T06:30:06.398Z,0.10
2019-02-04T06:31:06.349Z,0.10
2019-02-04T06:32:06.293Z,0.30
2019-02-04T06:33:06.248Z,0.20
2019-02-04T06:34:06.193Z,0.10
2019-02-04T06:35:06.140Z,0.10
2019-02-04T06:36:06.092Z,0.30
2019-02-04T06:37:06.036Z,0.50
2019-02-04T06:38:05.985Z,0.10
2019-02-04T06:39:05.932Z,0.40
2019-02-04T06:40:05.888Z,0.30
2019-02-04T06:41:05.953Z,0.30
2019-02-04T06:42:05.779Z,0.60
2019-02-04T06:43:05.723Z,0.30
2019-02-04T06:44:05.672Z,0.70
2019-02-04T06:45:05.621Z,0.10
2019-02-04T06:46:05.573Z,0.10
2019-02-04T06:47:05.517Z,0.20
2019-02-04T06:48:05.464Z,0.60
2019-02-04T06:49:12.008Z,0.10
2019-02-04T06:50:05.362Z,0.60
2019-02-04T06:51:05.312Z,0.10
2019-02-04T06:52:05.259Z,0.20
2019-02-04T06:53:05.208Z,0.10
2019-02-04T06:54:05.160Z,0.30
2019-02-04T06:55:05.108Z,0.30
2019-02-04T06:56:05.049Z,0.30
2019-02-04T06:57:05.009Z,0.40
2019-02-04T06:58:04.949Z,0.20
2019-02-04T06:59:04.903Z,0.30
2019-02-04T07:00:04.846Z,0.50
2019-02-04T07:01:04.799Z,0.30
2019-02-04T07:02:04.741Z,0.20
2019-02-04T07:03:04.686Z,0.10
2019-02-04T07:04:04.636Z,0.10
2019-02-04T07:05:04.598Z,0.20
2019-02-04T07:06:04.533Z,0.20
2019-02-04T07:07:04.482Z,0.30
2019-02-04T07:08:04.426Z,0.20
2019-02-04T07:09:04.383Z,0.20
2019-02-04T07:10:04.329Z,0.50
2019-02-04T07:11:04.270Z,0.10
2019-02-04T07:12:04.220Z,0.80
2019-02-04T07:13:04.167Z,0.80
2019-02-04T07:14:04.120Z,0.10
2019-02-04T07:15:04.063Z,0.50
2019-02-04T07:16:04.014Z,0.20
2019-02-04T07:17:03.961Z,0.10
2019-02-04T07:18:03.923Z,0.10
2019-02-04T07:19:03.916Z,0.20
2019-02-04T07:20:03.810Z,0.20
2019-02-04T07:21:03.763Z,0.20
2019-02-04T07:22:03.704Z,0.10
2019-02-04T07:23:03.655Z,0.20
2019-02-04T07:24:03.598Z,0.10
2019-02-04T07:25:03.551Z,0.30
2019-02-04T07:26:03.503Z,0.50
2019-02-04T07:27:03.447Z,0.20
2019-02-04T07:28:03.391Z,0.20
2019-02-04T07:29:03.343Z,0.10
2019-02-04T07:30:03.292Z,0.30
2019-02-04T07:31:03.235Z,0.20
2019-02-04T07:32:03.189Z,1.00
2019-02-04T07:33:03.132Z,0.10
2019-02-04T07:34:03.084Z,0.20
2019-02-04T07:35:03.036Z,0.20
2019-02-04T07:36:03.441Z,0.10
2019-02-04T07:37:02.927Z,0.40
2019-02-04T07:38:02.874Z,0.40
2019-02-04T07:39:02.829Z,0.40
2019-02-04T07:40:02.771Z,0.10
2019-02-04T07:41:02.727Z,0.40
2019-02-04T07:42:02.670Z,0.20
2019-02-04T07:43:02.614Z,0.10
2019-02-04T07:44:02.565Z,0.20
2019-02-04T07:45:02.510Z,0.20
2019-02-04T07:46:02.458Z,0.10
2019-02-04T07:47:02.409Z,0.20
2019-02-04T07:48:02.480Z,0.20
2019-02-04T07:49:02.304Z,0.10
2019-02-04T07:50:02.252Z,0.20
2019-02-04T07:51:02.200Z,0.30
2019-02-04T07:52:02.152Z,0.20
2019-02-04T07:53:02.102Z,0.40
2019-02-04T07:54:02.049Z,0.20
2019-02-04T07:55:01.992Z,0.20
2019-02-04T07:56:01.941Z,0.10
2019-02-04T07:57:01.888Z,0.20
2019-02-04T07:58:01.846Z,0.40
2019-02-04T07:59:01.792Z,0.40
2019-02-04T08:00:01.785Z,0.10
2019-02-04T08:01:01.694Z,0.50
2019-02-04T08:02:01.632Z,0.20
2019-02-04T08:03:01.581Z,0.20
2019-02-04T08:04:01.529Z,0.20
2019-02-04T08:05:01.475Z,0.20
2019-02-04T08:06:01.423Z,0.30
2019-02-04T08:07:01.376Z,0.10
2019-02-04T08:08:01.322Z,0.20
2019-02-04T08:09:01.271Z,0.30
2019-02-04T08:10:01.225Z,0.40
2019-02-04T08:11:01.201Z,0.20
2019-02-04T08:12:01.115Z,0.20
2019-02-04T08:13:02.118Z,0.20
2019-02-04T08:14:01.017Z,0.20
2019-02-04T08:15:00.963Z,0.30
2019-02-04T08:16:00.911Z,0.20
2019-02-04T08:17:00.886Z,0.70
2019-02-04T08:18:00.819Z,0.30
2019-02-04T08:19:00.767Z,0.20
2019-02-04T08:20:00.703Z,0.80
2019-02-04T08:21:00.650Z,0.40
2019-02-04T08:22:00.602Z,0.30
2019-02-04T08:23:00.550Z,0.20
2019-02-04T08:24:00.499Z,0.40
2019-02-04T08:25:00.446Z,0.20
2019-02-04T08:26:00.396Z,0.20
2019-02-04T08:27:00.345Z,0.30
2019-02-04T08:28:00.292Z,0.10
2019-02-04T08:29:00.249Z,0.20
2019-02-04T08:30:00.345Z,0.40
2019-02-04T08:31:00.142Z,0.30
2019-02-04T08:32:00.087Z,0.20
2019-02-04T08:33:00.041Z,0.40
2019-02-04T08:33:59.984Z,0.20
2019-02-04T08:34:59.933Z,0.10
2019-02-04T08:35:59.884Z,0.70
2019-02-04T08:36:59.829Z,0.20
2019-02-04T08:37:59.796Z,0.10
2019-02-04T08:38:59.727Z,0.60
2019-02-04T08:39:59.677Z,0.20
2019-02-04T08:40:59.624Z,0.10
2019-02-04T08:41:59.586Z,0.10
2019-02-04T08:42:59.520Z,0.30
2019-02-04T08:43:59.472Z,0.10
2019-02-04T08:44:59.427Z,0.10
2019-02-04T08:45:59.372Z,0.20
2019-02-04T08:46:59.316Z,0.20
2019-02-04T08:47:59.356Z,0.10
2019-02-04T08:48:59.215Z,0.20
2019-02-04T08:50:01.832Z,0.20
2019-02-04T08:50:59.113Z,0.30
2019-02-04T08:51:59.068Z,0.20
2019-02-04T08:52:59.013Z,0.40
2019-02-04T08:53:58.961Z,0.20
2019-02-04T08:54:58.906Z,0.10
2019-02-04T08:55:58.856Z,0.30
2019-02-04T08:56:58.809Z,0.50
2019-02-04T08:57:58.753Z,0.60
2019-02-04T08:58:58.708Z,0.30
2019-02-04T08:59:58.651Z,0.20
2019-02-04T09:00:58.604Z,0.20
2019-02-04T09:01:58.551Z,0.10
2019-02-04T09:02:58.506Z,0.20
2019-02-04T09:03:58.452Z,0.20
2019-02-04T09:04:58.401Z,0.30
2019-02-04T09:05:58.356Z,0.40
2019-02-04T09:06:58.299Z,0.60
2019-02-04T09:07:58.245Z,0.40
2019-02-04T09:08:58.194Z,0.10
2019-02-04T09:09:58.145Z,0.40
2019-02-04T09:10:58.092Z,0.20
2019-02-04T09:11:58.044Z,0.30
2019-02-04T09:12:57.992Z,0.30
2019-02-04T09:13:57.939Z,0.20
2019-02-04T09:14:57.888Z,0.10
2019-02-04T09:15:57.840Z,0.20
2019-02-04T09:16:57.787Z,0.40
2019-02-04T09:17:57.736Z,0.10
2019-02-04T09:18:57.686Z,0.10
2019-02-04T09:19:57.637Z,0.50
2019-02-04T09:20:57.588Z,0.30
2019-02-04T09:21:57.534Z,0.20
2019-02-04T09:22:57.482Z,0.20
2019-02-04T09:23:57.447Z,0.20
2019-02-04T09:24:57.384Z,0.20
2019-02-04T09:25:57.331Z,0.60
2019-02-04T09:26:57.281Z,0.20
2019-02-04T09:27:57.231Z,0.10
2019-02-04T09:28:57.179Z,0.30
2019-02-04T09:29:57.126Z,0.30
2019-02-04T09:30:57.084Z,0.10
2019-02-04T09:31:57.025Z,0.20
2019-02-04T09:32:56.980Z,0.10
2019-02-04T09:33:56.937Z,0.20
2019-02-04T09:34:56.876Z,0.30
2019-02-04T09:35:56.863Z,0.20
2019-02-04T09:36:56.795Z,0.10
2019-02-04T09:37:56.722Z,0.20
2019-02-04T09:38:56.670Z,0.10
2019-02-04T09:39:56.621Z,0.50
2019-02-04T09:40:56.572Z,0.30
2019-02-04T09:41:56.520Z,0.20
2019-02-04T09:42:56.468Z,0.10
2019-02-04T09:43:56.425Z,0.20
2019-02-04T09:44:56.367Z,0.20
2019-02-04T09:45:56.321Z,0.20
2019-02-04T09:46:56.268Z,0.20
2019-02-04T09:47:56.217Z,0.60
2019-02-04T09:48:56.167Z,0.40
2019-02-04T09:49:56.116Z,0.10
2019-02-04T09:50:56.068Z,0.60
2019-02-04T09:51:56.016Z,0.50
2019-02-04T09:52:55.964Z,0.10
2019-02-04T09:53:55.921Z,0.30
2019-02-04T09:54:55.861Z,0.20
2019-02-04T09:55:57.056Z,0.10
2019-02-04T09:56:55.771Z,0.40
2019-02-04T09:57:55.710Z,0.20
2019-02-04T09:58:55.660Z,0.10
2019-02-04T09:59:55.758Z,0.60
2019-02-04T10:00:55.562Z,0.20
2019-02-04T10:01:55.515Z,0.20
2019-02-04T10:02:55.458Z,0.30
2019-02-04T10:03:55.408Z,0.30
2019-02-04T10:04:55.363Z,0.30
2019-02-04T10:05:55.322Z,0.30
2019-02-04T10:06:55.518Z,0.30
2019-02-04T10:07:55.206Z,0.10
2019-02-04T10:08:55.157Z,0.30
2019-02-04T10:09:55.107Z,0.20
2019-02-04T10:10:55.055Z,0.20
2019-02-04T10:11:55.002Z,0.70
2019-02-04T10:12:54.955Z,0.40
2019-02-04T10:13:54.906Z,0.10
2019-02-04T10:14:54.923Z,0.30
2019-02-04T10:15:54.805Z,0.20
2019-02-04T10:16:54.753Z,0.20
2019-02-04T10:17:54.778Z,0.20
2019-02-04T10:18:54.702Z,0.30
2019-02-04T10:19:54.642Z,0.20
2019-02-04T10:20:54.553Z,0.10
2019-02-04T10:21:54.640Z,0.30
2019-02-04T10:22:54.559Z,0.30
2019-02-04T10:23:54.403Z,0.20
2019-02-04T10:24:54.366Z,0.20
2019-02-04T10:25:54.344Z,0.20
2019-02-04T10:26:54.278Z,0.30
2019-02-04T10:27:54.220Z,0.20
2019-02-04T10:28:54.151Z,0.40
2019-02-04T10:29:54.131Z,0.40
2019-02-04T10:30:54.080Z,0.30
2019-02-04T10:31:54.003Z,0.80
2019-02-04T10:32:54.004Z,0.40
2019-02-04T10:33:53.910Z,0.20
2019-02-04T10:34:53.896Z,0.20
2019-02-04T10:35:53.797Z,0.10
2019-02-04T10:36:53.839Z,0.30
2019-02-04T10:37:53.726Z,0.20
2019-02-04T10:38:53.667Z,0.30
2019-02-04T10:39:53.606Z,0.20
2019-02-04T10:40:53.577Z,0.20
2019-02-04T10:41:53.512Z,0.50
2019-02-04T10:42:53.451Z,0.20
2019-02-04T10:43:53.401Z,0.30
2019-02-04T10:44:53.399Z,0.30
2019-02-04T10:45:53.318Z,0.40
2019-02-04T10:46:53.250Z,0.60
2019-02-04T10:47:53.199Z,0.10
2019-02-04T10:48:53.148Z,0.60
2019-02-04T10:49:53.097Z,0.60
2019-02-04T10:50:53.053Z,0.20
2019-02-04T10:51:53.020Z,0.10
2019-02-04T10:52:52.951Z,1.00
2019-02-04T10:53:52.906Z,0.20
2019-02-04T10:54:52.889Z,0.10
2019-02-04T10:55:52.799Z,0.30
2019-02-04T10:56:52.766Z,0.10
2019-02-04T10:57:52.724Z,0.20
2019-02-04T10:58:52.706Z,0.50
2019-02-04T10:59:52.628Z,0.20
2019-02-04T11:00:52.583Z,0.20
2019-02-04T11:01:52.513Z,0.30
2019-02-04T11:02:52.493Z,0.30
2019-02-04T11:03:52.402Z,0.80
2019-02-04T11:04:52.357Z,0.20
2019-02-04T11:05:52.302Z,6.10
2019-02-04T11:06:52.291Z,13.10
2019-02-04T11:07:52.206Z,11.90
2019-02-04T11:08:52.167Z,18.40
2019-02-04T11:09:52.103Z,12.80
2019-02-04T11:10:52.074Z,13.00
2019-02-04T11:11:52.044Z,11.30
2019-02-04T11:12:51.997Z,13.30
2019-02-04T11:13:51.909Z,12.10
2019-02-04T11:14:51.855Z,13.50
2019-02-04T11:15:51.805Z,17.80
2019-02-04T11:16:51.753Z,11.40
2019-02-04T11:17:51.738Z,17.30
2019-02-04T11:18:51.655Z,14.70
2019-02-04T11:19:51.604Z,13.10
2019-02-04T11:20:57.980Z,11.80
2019-02-04T11:21:51.538Z,13.20
2019-02-04T11:22:51.544Z,16.10
2019-02-04T11:23:51.446Z,11.20
2019-02-04T11:24:51.367Z,14.20
2019-02-04T11:25:51.309Z,13.10
2019-02-04T11:26:51.277Z,10.60
2019-02-04T11:27:51.338Z,10.90
2019-02-04T11:28:51.196Z,20.00
2019-02-04T11:29:51.162Z,13.60
2019-02-04T11:30:51.058Z,20.00
2019-02-04T11:31:51.011Z,10.50
2019-02-04T11:32:50.983Z,11.30
2019-02-04T11:33:50.943Z,14.20
2019-02-04T11:34:51.046Z,12.70
2019-02-04T11:35:50.815Z,11.90
2019-02-04T11:36:50.784Z,18.90
2019-02-04T11:37:50.756Z,19.60
2019-02-04T11:38:50.674Z,16.20
2019-02-04T11:39:50.614Z,14.00
2019-02-04T11:40:50.623Z,11.20
2019-02-04T11:41:50.514Z,13.40
2019-02-04T11:42:50.513Z,11.60
2019-02-04T11:43:50.438Z,10.90
2019-02-04T11:44:50.504Z,13.50
2019-02-04T11:45:50.326Z,12.70
2019-02-04T11:46:50.311Z,13.60
2019-02-04T11:47:50.217Z,12.40
2019-02-04T11:48:50.170Z,11.50
2019-02-04T11:49:50.120Z,16.90
2019-02-04T11:50:50.069Z,12.00
2019-02-04T11:51:50.023Z,15.00
2019-02-04T11:52:49.973Z,12.90
2019-02-04T11:53:49.924Z,21.90
2019-02-04T11:54:49.873Z,19.50
2019-02-04T11:55:49.826Z,13.00
2019-02-04T11:56:49.775Z,13.20
2019-02-04T11:57:49.726Z,26.10
2019-02-04T11:58:49.677Z,10.60
2019-02-04T11:59:49.627Z,19.10
2019-02-04T12:00:49.579Z,20.40
2019-02-04T12:01:49.531Z,10.50
2019-02-04T12:02:49.481Z,16.10
2019-02-04T12:03:49.433Z,11.40
2019-02-04T12:04:49.383Z,13.10
2019-02-04T12:05:49.339Z,13.30
2019-02-04T12:06:49.286Z,12.20
2019-02-04T12:07:49.236Z,12.20
2019-02-04T12:08:49.187Z,11.00
2019-02-04T12:09:49.143Z,12.10
2019-02-04T12:10:49.089Z,13.30
2019-02-04T12:11:49.037Z,19.30
2019-02-04T12:12:48.991Z,28.10
2019-02-04T12:13:48.942Z,12.80
2019-02-04T12:14:48.897Z,12.20
2019-02-04T12:15:48.851Z,15.80
2019-02-04T12:16:48.799Z,14.80
2019-02-04T12:17:48.753Z,11.10
2019-02-04T12:18:48.697Z,10.80
2019-02-04T12:19:48.648Z,12.40
2019-02-04T12:20:48.598Z,15.30
2019-02-04T12:21:48.550Z,13.80
2019-02-04T12:22:48.512Z,15.90
2019-02-04T12:23:48.451Z,11.10
2019-02-04T12:24:48.408Z,12.40
2019-02-04T12:25:48.353Z,13.70
2019-02-04T12:26:48.307Z,22.30
2019-02-04T12:27:48.260Z,12.00
2019-02-04T12:28:48.208Z,12.90
2019-02-04T12:29:48.159Z,14.70
2019-02-04T12:30:48.238Z,14.10
2019-02-04T12:31:48.065Z,14.60
2019-02-04T12:32:48.011Z,12.60
2019-02-04T12:33:48.059Z,13.90
2019-02-04T12:34:47.918Z,13.20
2019-02-04T12:35:47.865Z,20.50
2019-02-04T12:36:47.822Z,14.90
2019-02-04T12:37:47.768Z,21.00
2019-02-04T12:38:47.719Z,15.60
2019-02-04T12:39:47.675Z,13.10
2019-02-04T12:40:47.624Z,13.80
2019-02-04T12:41:50.629Z,13.00
2019-02-04T12:42:47.532Z,11.50
2019-02-04T12:43:47.478Z,9.90
2019-02-04T12:44:47.431Z,21.50
2019-02-04T12:45:47.381Z,12.20
2019-02-04T12:46:47.333Z,12.50
2019-02-04T12:47:47.285Z,12.40
2019-02-04T12:48:47.249Z,9.20
2019-02-04T12:49:47.187Z,10.50
2019-02-04T12:50:47.136Z,10.10
2019-02-04T12:51:47.096Z,10.10
2019-02-04T12:52:47.044Z,14.40
2019-02-04T12:53:46.991Z,11.60
2019-02-04T12:54:46.946Z,9.50
2019-02-04T12:55:46.921Z,12.80
2019-02-04T12:56:46.854Z,14.20
2019-02-04T12:57:46.801Z,9.30
2019-02-04T12:58:55.276Z,16.80
2019-02-04T12:59:46.701Z,11.20
2019-02-04T13:00:46.650Z,16.90
2019-02-04T13:01:46.606Z,10.90
2019-02-04T13:02:46.556Z,21.10
2019-02-04T13:03:46.507Z,11.80
2019-02-04T13:04:46.461Z,8.50
2019-02-04T13:05:46.412Z,11.80
2019-02-04T13:06:46.925Z,12.70
2019-02-04T13:07:46.313Z,14.10
2019-02-04T13:08:46.270Z,13.80
2019-02-04T13:09:46.216Z,7.60
2019-02-04T13:10:46.166Z,9.30
2019-02-04T13:11:46.122Z,10.80
2019-02-04T13:12:46.069Z,9.10
2019-02-04T13:13:46.031Z,16.50